createdAt,value
2023-03-28T00:00:54.532Z,9.40
2023-03-28T00:03:23.053Z,9.50
2023-03-28T00:05:55.294Z,9.40
2023-03-28T00:08:25.274Z,9.30
2023-03-28T00:10:53.712Z,9.50
2023-03-28T00:13:23.273Z,9.30
2023-03-28T00:15:52.962Z,9.30
2023-03-28T00:18:21.490Z,9.30
2023-03-28T00:20:50.338Z,9.20
2023-03-28T00:23:19.081Z,9.30
2023-03-28T00:25:48.953Z,9.20
2023-03-28T00:28:17.367Z,9.50
2023-03-28T00:30:45.759Z,9.80
2023-03-28T00:33:14.199Z,10.10
2023-03-28T00:35:42.616Z,10.20
2023-03-28T00:38:14.008Z,10.40
2023-03-28T00:40:46.123Z,10.30
2023-03-28T00:43:16.020Z,10.40
2023-03-28T00:45:44.451Z,10.50
2023-03-28T00:48:15.636Z,10.50
2023-03-28T00:50:47.072Z,10.50
2023-03-28T00:53:16.901Z,10.50
2023-03-28T00:55:47.031Z,10.50
2023-03-28T00:58:18.276Z,10.50
2023-03-28T01:00:47.525Z,10.60
2023-03-28T01:03:16.413Z,10.70
2023-03-28T01:05:45.071Z,10.70
2023-03-28T01:08:15.725Z,10.60
2023-03-28T01:10:44.902Z,10.50
2023-03-28T01:13:14.596Z,10.60
2023-03-28T01:15:45.383Z,10.60
2023-03-28T01:18:16.350Z,10.60
2023-03-28T01:20:57.309Z,10.60
2023-03-28T01:23:43.254Z,10.40
2023-03-28T01:26:26.579Z,10.30
2023-03-28T01:29:02.669Z,10.40
2023-03-28T01:31:48.682Z,10.70
2023-03-28T01:34:34.972Z,10.50
2023-03-28T01:37:10.833Z,10.60
2023-03-28T01:39:44.219Z,10.60
2023-03-28T01:42:16.033Z,10.80
2023-03-28T01:44:48.706Z,10.90
2023-03-28T01:47:20.874Z,11.00
2023-03-28T01:49:52.082Z,10.90
2023-03-28T01:52:23.652Z,10.90
2023-03-28T01:54:55.760Z,11.00
2023-03-28T01:57:26.661Z,11.00
2023-03-28T01:59:58.294Z,11.10
2023-03-28T02:02:30.202Z,10.90
2023-03-28T02:04:59.805Z,10.70
2023-03-28T02:07:30.301Z,10.80
2023-03-28T02:09:59.494Z,10.70
2023-03-28T02:12:31.099Z,10.30
2023-03-28T02:15:04.166Z,10.20
2023-03-28T02:17:34.541Z,10.00
2023-03-28T02:20:08.996Z,10.20
2023-03-28T02:22:39.789Z,10.40
2023-03-28T02:25:08.655Z,10.40
2023-03-28T02:27:39.541Z,10.30
2023-03-28T02:30:08.681Z,10.40
2023-03-28T02:32:37.897Z,10.40
2023-03-28T02:35:07.671Z,10.40
2023-03-28T02:37:42.373Z,10.20
2023-03-28T02:40:28.372Z,10.10
2023-03-28T02:43:13.332Z,10.30
2023-03-28T02:45:59.787Z,10.50
2023-03-28T02:48:34.126Z,10.30
2023-03-28T02:51:06.278Z,10.20
2023-03-28T02:53:39.650Z,10.20
2023-03-28T02:56:10.921Z,10.20
2023-03-28T02:58:43.632Z,10.30
2023-03-28T03:01:14.687Z,10.20
2023-03-28T03:03:43.899Z,10.20
2023-03-28T03:06:12.685Z,10.30
2023-03-28T03:08:41.148Z,10.30
2023-03-28T03:11:09.602Z,10.30
2023-03-28T03:13:38.067Z,10.40
2023-03-28T03:16:08.283Z,10.60
2023-03-28T03:18:37.093Z,10.60
2023-03-28T03:21:05.740Z,10.80
2023-03-28T03:23:34.159Z,10.80
2023-03-28T03:26:02.680Z,10.80
2023-03-28T03:28:31.642Z,10.70
2023-03-28T03:31:00.096Z,10.80
2023-03-28T03:33:32.402Z,10.80
2023-03-28T03:36:01.571Z,10.80
2023-03-28T03:38:30.140Z,10.70
2023-03-28T03:40:58.551Z,10.30
2023-03-28T03:43:27.794Z,10.20
2023-03-28T03:45:57.742Z,10.20
2023-03-28T03:48:26.446Z,10.10
2023-03-28T03:50:56.233Z,10.00
2023-03-28T03:53:24.712Z,10.20
2023-03-28T03:55:53.181Z,10.20
2023-03-28T03:58:21.612Z,10.00
2023-03-28T04:00:50.117Z,10.10
2023-03-28T04:03:25.148Z,10.00
2023-03-28T04:05:56.465Z,10.20
2023-03-28T04:08:26.323Z,10.10
2023-03-28T04:10:54.675Z,10.20
2023-03-28T04:13:23.094Z,10.00
2023-03-28T04:15:51.546Z,10.00
2023-03-28T04:18:20.644Z,10.00
2023-03-28T04:20:53.834Z,10.10
2023-03-28T04:23:25.799Z,10.20
2023-03-28T04:25:58.533Z,10.10
2023-03-28T04:28:27.813Z,9.90
2023-03-28T04:30:58.284Z,10.00
2023-03-28T04:33:27.223Z,10.10
2023-03-28T04:36:00.467Z,10.10
2023-03-28T04:38:29.828Z,10.10
2023-03-28T04:41:00.940Z,10.20
2023-03-28T04:43:29.731Z,10.20
2023-03-28T04:45:59.207Z,10.20
2023-03-28T04:48:28.305Z,10.30
2023-03-28T04:50:57.410Z,10.30
2023-03-28T04:53:25.928Z,10.50
2023-03-28T04:55:54.432Z,10.60
2023-03-28T04:58:24.917Z,10.70
2023-03-28T05:00:54.128Z,10.60
2023-03-28T05:03:23.301Z,10.50
2023-03-28T05:05:52.523Z,10.30
2023-03-28T05:08:22.646Z,10.50
2023-03-28T05:10:51.882Z,10.50
2023-03-28T05:13:20.314Z,10.40
2023-03-28T05:15:50.318Z,10.30
2023-03-28T05:18:18.786Z,10.30
2023-03-28T05:20:47.299Z,10.40
2023-03-28T05:23:15.869Z,10.40
2023-03-28T05:25:44.392Z,10.60
2023-03-28T05:28:12.793Z,10.80
2023-03-28T05:30:41.373Z,10.70
2023-03-28T05:33:11.454Z,10.70
2023-03-28T05:35:40.535Z,10.80
2023-03-28T05:38:09.128Z,10.70
2023-03-28T05:40:37.719Z,10.60
2023-03-28T05:43:06.114Z,10.70
2023-03-28T05:45:34.579Z,10.60
2023-03-28T05:48:03.636Z,10.70
2023-03-28T05:50:33.544Z,10.80
2023-03-28T05:53:01.925Z,10.90
2023-03-28T05:55:30.333Z,10.90
2023-03-28T05:57:59.583Z,10.70
2023-03-28T06:00:28.283Z,10.70
2023-03-28T06:02:56.764Z,10.70
2023-03-28T06:05:25.203Z,10.90
2023-03-28T06:07:55.120Z,11.10
2023-03-28T06:10:24.245Z,11.10
2023-03-28T06:12:52.784Z,10.90
2023-03-28T06:15:21.250Z,10.90
2023-03-28T06:17:49.778Z,10.90
2023-03-28T06:20:18.409Z,10.80
2023-03-28T06:22:46.814Z,10.70
2023-03-28T06:25:16.709Z,10.70
2023-03-28T06:27:45.168Z,10.70
2023-03-28T06:30:14.333Z,10.40
2023-03-28T06:32:42.752Z,10.40
2023-03-28T06:35:11.260Z,10.40
2023-03-28T06:37:39.670Z,10.30
2023-03-28T06:40:08.817Z,10.40
2023-03-28T06:42:38.675Z,10.40
2023-03-28T06:45:07.624Z,10.40
2023-03-28T06:47:36.204Z,10.40
2023-03-28T06:50:04.826Z,10.40
2023-03-28T06:52:33.310Z,10.40
2023-03-28T06:55:01.727Z,10.40
2023-03-28T06:57:30.151Z,10.30
2023-03-28T06:59:59.979Z,10.20
2023-03-28T07:02:28.598Z,10.20
2023-03-28T07:04:57.051Z,10.40
2023-03-28T07:07:25.552Z,10.20
2023-03-28T07:09:54.737Z,9.70
2023-03-28T07:12:23.218Z,9.00
2023-03-28T07:14:51.645Z,8.50
2023-03-28T07:17:21.458Z,8.10
2023-03-28T07:19:51.289Z,7.60
2023-03-28T07:22:19.778Z,7.40
2023-03-28T07:24:48.183Z,7.40
2023-03-28T07:27:17.270Z,7.60
2023-03-28T07:29:45.851Z,7.70
2023-03-28T07:32:14.608Z,7.70
2023-03-28T07:34:44.426Z,7.70
2023-03-28T07:37:12.775Z,7.50
2023-03-28T07:39:43.742Z,7.60
2023-03-28T07:42:12.583Z,7.50
2023-03-28T07:44:42.362Z,7.20
2023-03-28T07:47:11.095Z,7.00
2023-03-28T07:49:39.643Z,7.20
2023-03-28T07:52:12.243Z,7.20
2023-03-28T07:54:40.858Z,7.20
2023-03-28T07:57:09.254Z,7.30
2023-03-28T07:59:37.753Z,7.40
2023-03-28T08:02:06.219Z,7.50
2023-03-28T08:04:34.589Z,7.70
2023-03-28T08:07:02.972Z,7.80
2023-03-28T08:09:32.710Z,7.80
2023-03-28T08:12:01.211Z,7.90
2023-03-28T08:14:29.706Z,8.00
2023-03-28T08:16:58.155Z,8.10
2023-03-28T08:19:26.517Z,8.10
2023-03-28T08:21:54.899Z,8.10
2023-03-28T08:24:34.779Z,8.10
2023-03-28T08:27:04.993Z,8.40
2023-03-28T08:29:33.382Z,8.30
2023-03-28T08:32:01.809Z,8.20
2023-03-28T08:34:30.836Z,7.80
2023-03-28T08:36:59.982Z,7.60
2023-03-28T08:39:29.209Z,7.50
2023-03-28T08:42:20.143Z,7.30
2023-03-28T08:45:05.423Z,7.10
2023-03-28T08:47:37.511Z,7.00
2023-03-28T08:50:17.418Z,6.90
2023-03-28T08:52:47.886Z,6.90
2023-03-28T08:55:29.242Z,7.00
2023-03-28T08:57:58.870Z,7.00
2023-03-28T09:00:30.172Z,7.10
2023-03-28T09:02:59.111Z,7.30
2023-03-28T09:05:32.783Z,7.30
2023-03-28T09:08:04.773Z,7.40
2023-03-28T09:10:35.450Z,7.60
2023-03-28T09:13:22.735Z,7.70
2023-03-28T09:16:04.463Z,8.00
2023-03-28T09:18:44.137Z,8.30
2023-03-28T09:21:16.813Z,8.60
2023-03-28T09:23:56.091Z,9.10
2023-03-28T09:26:26.115Z,9.40
2023-03-28T09:28:58.306Z,9.60
2023-03-28T09:31:32.116Z,9.60
2023-03-28T09:34:01.930Z,9.80
2023-03-28T09:36:41.463Z,9.80
2023-03-28T09:39:19.793Z,9.50
2023-03-28T09:41:52.559Z,9.50
2023-03-28T09:44:24.485Z,9.30
2023-03-28T09:46:55.129Z,9.40
2023-03-28T09:49:24.990Z,9.30
2023-03-28T09:51:55.558Z,9.40
2023-03-28T09:54:28.714Z,9.40
2023-03-28T09:57:01.226Z,9.40
2023-03-28T09:59:30.275Z,9.60
2023-03-28T10:02:02.475Z,9.80
2023-03-28T10:04:35.148Z,9.90
2023-03-28T10:07:22.307Z,10.00
2023-03-28T10:09:51.504Z,10.00
2023-03-28T10:12:22.271Z,10.00
2023-03-28T10:14:50.941Z,10.00
2023-03-28T10:17:27.415Z,10.00
2023-03-28T10:19:59.918Z,10.00
2023-03-28T10:22:29.449Z,10.10
2023-03-28T10:24:58.276Z,10.30
2023-03-28T10:27:28.921Z,10.40
2023-03-28T10:29:58.377Z,10.60
2023-03-28T10:32:28.781Z,10.60
2023-03-28T10:35:02.007Z,10.60
2023-03-28T10:37:31.866Z,10.80
2023-03-28T10:40:01.414Z,10.90
2023-03-28T10:42:40.082Z,10.90
2023-03-28T10:45:19.568Z,11.20
2023-03-28T10:47:50.757Z,11.20
2023-03-28T10:50:23.532Z,11.30
2023-03-28T10:52:54.906Z,11.50
2023-03-28T10:55:25.191Z,11.50
2023-03-28T10:57:58.211Z,11.60
2023-03-28T11:00:29.085Z,11.50
2023-03-28T11:03:12.162Z,11.60
2023-03-28T11:05:49.897Z,11.60
2023-03-28T11:08:33.729Z,11.80
2023-03-28T11:11:05.331Z,11.70
2023-03-28T11:13:41.041Z,11.80
2023-03-28T11:16:13.379Z,11.80
2023-03-28T11:18:49.306Z,11.80
2023-03-28T11:21:22.984Z,11.60
2023-03-28T11:23:56.898Z,11.70
2023-03-28T11:26:28.366Z,11.80
2023-03-28T11:29:06.214Z,12.10
2023-03-28T11:31:36.788Z,12.00
2023-03-28T11:34:11.282Z,12.20
2023-03-28T11:36:43.629Z,12.20
2023-03-28T11:39:14.806Z,12.10
2023-03-28T11:41:44.092Z,12.10
2023-03-28T11:44:16.414Z,12.10
2023-03-28T11:46:47.239Z,12.40
2023-03-28T11:49:19.724Z,12.20
2023-03-28T11:51:52.594Z,12.20
2023-03-28T11:54:23.450Z,12.10
2023-03-28T11:56:53.858Z,12.30
2023-03-28T11:59:24.675Z,12.20
2023-03-28T12:01:56.133Z,12.10
2023-03-28T12:04:29.626Z,12.10
2023-03-28T12:07:04.816Z,12.00
2023-03-28T12:09:35.903Z,12.10
2023-03-28T12:12:07.751Z,12.20
2023-03-28T12:14:38.654Z,12.40
2023-03-28T12:17:15.114Z,12.50
2023-03-28T12:19:48.595Z,12.30
2023-03-28T12:22:21.380Z,12.30
2023-03-28T12:24:52.688Z,12.30
2023-03-28T12:27:25.562Z,12.40
2023-03-28T12:29:56.809Z,12.40
2023-03-28T12:32:29.948Z,12.40
2023-03-28T12:35:05.165Z,12.60
2023-03-28T12:37:36.678Z,12.50
2023-03-28T12:40:13.031Z,12.40
2023-03-28T12:42:42.478Z,12.50
2023-03-28T12:45:14.929Z,12.30
2023-03-28T12:47:45.701Z,12.20
2023-03-28T12:50:18.339Z,12.20
2023-03-28T12:52:47.751Z,12.30
2023-03-28T12:55:34.661Z,12.40
2023-03-28T12:58:13.119Z,12.40
2023-03-28T13:00:48.133Z,12.40
2023-03-28T13:03:20.914Z,12.50
2023-03-28T13:05:57.673Z,12.50
2023-03-28T13:08:27.922Z,12.30
2023-03-28T13:11:04.790Z,12.30
2023-03-28T13:13:40.283Z,12.40
2023-03-28T13:16:15.143Z,12.30
2023-03-28T13:18:49.940Z,12.40
2023-03-28T13:21:33.208Z,12.40
2023-03-28T13:24:03.061Z,12.60
2023-03-28T13:26:54.534Z,12.50
2023-03-28T13:29:23.077Z,12.30
2023-03-28T13:31:52.704Z,12.20
2023-03-28T13:34:23.823Z,12.30
2023-03-28T13:36:54.957Z,12.30
2023-03-28T13:39:26.141Z,12.50
2023-03-28T13:41:56.085Z,12.30
2023-03-28T13:44:28.946Z,12.20
2023-03-28T13:46:58.078Z,12.30
2023-03-28T13:49:33.508Z,12.30
2023-03-28T13:52:05.005Z,12.50
2023-03-28T13:54:35.091Z,12.30
2023-03-28T13:57:04.691Z,12.40
2023-03-28T13:59:34.776Z,12.40
2023-03-28T14:02:05.075Z,12.30
2023-03-28T14:04:34.333Z,12.30
2023-03-28T14:07:03.313Z,12.10
2023-03-28T14:09:32.626Z,12.00
2023-03-28T14:12:03.880Z,12.10
2023-03-28T14:14:33.847Z,12.10
2023-03-28T14:17:02.748Z,12.20
2023-03-28T14:19:34.911Z,12.10
2023-03-28T14:22:03.639Z,12.10
2023-03-28T14:24:32.203Z,12.10
2023-03-28T14:27:10.631Z,12.10
2023-03-28T14:29:52.458Z,12.20
2023-03-28T14:32:24.568Z,12.20
2023-03-28T14:34:53.890Z,12.20
2023-03-28T14:37:23.070Z,12.40
2023-03-28T14:39:52.654Z,12.30
2023-03-28T14:42:24.402Z,12.20
2023-03-28T14:44:54.317Z,12.10
2023-03-28T14:47:26.795Z,12.10
2023-03-28T14:49:55.787Z,12.10
2023-03-28T14:52:27.190Z,12.10
2023-03-28T14:54:56.120Z,12.30
2023-03-28T14:57:26.652Z,12.20
2023-03-28T14:59:55.404Z,12.20
2023-03-28T15:02:25.765Z,12.20
2023-03-28T15:04:54.708Z,12.10
2023-03-28T15:07:26.547Z,12.00
2023-03-28T15:10:09.039Z,12.10
2023-03-28T15:12:44.069Z,12.00
2023-03-28T15:15:16.505Z,12.00
2023-03-28T15:17:45.991Z,12.00
2023-03-28T15:20:17.269Z,11.90
2023-03-28T15:22:47.882Z,11.90
2023-03-28T15:25:16.680Z,11.80
2023-03-28T15:27:49.731Z,11.90
2023-03-28T15:30:20.446Z,11.90
2023-03-28T15:32:49.473Z,11.90
2023-03-28T15:35:26.366Z,11.80
2023-03-28T15:38:01.185Z,11.80
2023-03-28T15:40:31.161Z,11.70
2023-03-28T15:43:02.116Z,11.70
2023-03-28T15:45:38.678Z,11.70
2023-03-28T15:48:07.673Z,11.80
2023-03-28T15:50:37.580Z,11.80
2023-03-28T15:53:07.393Z,11.70
2023-03-28T15:55:36.101Z,11.80
2023-03-28T15:58:06.803Z,11.90
2023-03-28T16:00:42.478Z,11.80
2023-03-28T16:03:35.522Z,11.70
2023-03-28T16:06:23.181Z,11.80
2023-03-28T16:09:13.216Z,11.90
2023-03-28T16:11:42.165Z,11.80
2023-03-28T16:14:14.219Z,11.70
2023-03-28T16:16:42.737Z,11.70
2023-03-28T16:19:14.738Z,11.80
2023-03-28T16:21:43.273Z,11.90
2023-03-28T16:24:11.701Z,11.90
2023-03-28T16:26:40.298Z,11.80
2023-03-28T16:29:09.082Z,11.70
2023-03-28T16:31:39.154Z,11.70
2023-03-28T16:34:09.814Z,11.70
2023-03-28T16:36:38.784Z,11.70
2023-03-28T16:39:08.354Z,11.70
2023-03-28T16:41:37.306Z,11.50
2023-03-28T16:44:05.836Z,11.50
2023-03-28T16:46:34.395Z,11.50
2023-03-28T16:49:04.189Z,11.50
2023-03-28T16:51:32.625Z,11.50
2023-03-28T16:54:01.086Z,11.50
2023-03-28T16:56:30.463Z,11.50
2023-03-28T16:58:58.888Z,11.50
2023-03-28T17:01:27.541Z,11.40
2023-03-28T17:03:56.041Z,11.50
2023-03-28T17:06:27.534Z,11.30
2023-03-28T17:08:56.260Z,11.30
2023-03-28T17:11:24.586Z,11.30
2023-03-28T17:13:54.554Z,11.40
2023-03-28T17:16:23.433Z,11.30
2023-03-28T17:18:53.754Z,11.40
2023-03-28T17:21:22.242Z,11.40
2023-03-28T17:23:52.861Z,11.60
2023-03-28T17:26:21.693Z,11.70
2023-03-28T17:28:51.659Z,11.60
2023-03-28T17:31:21.212Z,11.60
2023-03-28T17:33:49.801Z,11.60
2023-03-28T17:36:21.479Z,11.60
2023-03-28T17:38:50.556Z,11.60
2023-03-28T17:41:23.199Z,11.60
2023-03-28T17:43:52.137Z,11.60
2023-03-28T17:46:21.435Z,11.60
2023-03-28T17:48:50.215Z,11.60
2023-03-28T17:51:19.124Z,11.60
2023-03-28T17:53:47.719Z,11.60
2023-03-28T17:56:16.981Z,11.60
2023-03-28T17:58:46.974Z,11.60
2023-03-28T18:01:16.741Z,11.60
2023-03-28T18:03:45.886Z,11.50
2023-03-28T18:06:14.737Z,11.50
2023-03-28T18:08:45.039Z,11.50
2023-03-28T18:11:14.516Z,11.50
2023-03-28T18:13:43.180Z,11.50
2023-03-28T18:16:13.820Z,11.50
2023-03-28T18:18:42.386Z,11.50
2023-03-28T18:21:11.462Z,11.50
2023-03-28T18:23:40.388Z,11.50
2023-03-28T18:26:09.216Z,11.50
2023-03-28T18:28:37.661Z,11.50
2023-03-28T18:31:10.064Z,11.50
2023-03-28T18:33:40.220Z,11.50
2023-03-28T18:36:09.271Z,11.50
2023-03-28T18:38:38.389Z,11.60
2023-03-28T18:41:06.927Z,11.60
2023-03-28T18:43:35.411Z,11.50
2023-03-28T18:46:04.096Z,11.40
2023-03-28T18:48:33.617Z,11.40
2023-03-28T18:51:06.466Z,11.30
2023-03-28T18:53:35.368Z,11.40
2023-03-28T18:56:04.694Z,11.40
2023-03-28T18:58:33.263Z,11.40
2023-03-28T19:01:03.680Z,11.30
2023-03-28T19:03:33.258Z,11.30
2023-03-28T19:06:03.745Z,11.20
2023-03-28T19:08:32.592Z,11.00
2023-03-28T19:11:01.663Z,10.90
2023-03-28T19:13:30.248Z,10.80
2023-03-28T19:15:59.505Z,10.70
2023-03-28T19:18:28.296Z,10.70
2023-03-28T19:20:58.300Z,10.80
2023-03-28T19:23:28.840Z,10.80
2023-03-28T19:25:57.280Z,10.80
2023-03-28T19:28:25.736Z,10.70
2023-03-28T19:30:57.618Z,10.60
2023-03-28T19:33:26.387Z,10.50
2023-03-28T19:35:54.935Z,10.50
2023-03-28T19:38:23.618Z,10.40
2023-03-28T19:40:57.670Z,10.30
2023-03-28T19:43:26.459Z,10.10
2023-03-28T19:45:54.960Z,10.10
2023-03-28T19:48:23.384Z,9.90
2023-03-28T19:50:51.778Z,9.80
2023-03-28T19:53:20.120Z,9.80
2023-03-28T19:55:53.707Z,9.80
2023-03-28T19:58:22.267Z,9.80
2023-03-28T20:00:50.869Z,9.80
2023-03-28T20:03:19.739Z,9.80
2023-03-28T20:05:49.168Z,9.80
2023-03-28T20:08:19.027Z,9.70
2023-03-28T20:10:48.366Z,9.60
2023-03-28T20:13:18.238Z,9.60
2023-03-28T20:15:47.300Z,9.60
2023-03-28T20:18:20.505Z,9.50
2023-03-28T20:20:52.863Z,9.50
2023-03-28T20:23:23.566Z,9.40
2023-03-28T20:25:53.248Z,9.40
2023-03-28T20:28:25.055Z,9.40
2023-03-28T20:30:54.276Z,9.30
2023-03-28T20:33:23.054Z,9.30
2023-03-28T20:35:54.668Z,9.30
2023-03-28T20:38:23.105Z,9.30
2023-03-28T20:40:51.698Z,9.30
2023-03-28T20:43:21.216Z,9.20
2023-03-28T20:45:53.836Z,9.20
2023-03-28T20:48:26.088Z,9.20
2023-03-28T20:50:55.089Z,9.20
2023-03-28T20:53:23.539Z,9.30
2023-03-28T20:56:00.311Z,9.40
2023-03-28T20:58:29.635Z,9.40
2023-03-28T21:01:00.478Z,9.40
2023-03-28T21:03:39.454Z,9.40
2023-03-28T21:06:08.437Z,9.40
2023-03-28T21:08:37.028Z,9.30
2023-03-28T21:11:05.697Z,9.30
2023-03-28T21:13:34.105Z,9.40
2023-03-28T21:16:03.970Z,9.40
2023-03-28T21:18:35.036Z,9.30
2023-03-28T21:21:03.609Z,9.20
2023-03-28T21:23:32.176Z,9.20
2023-03-28T21:26:00.684Z,9.20
2023-03-28T21:28:29.489Z,9.10
2023-03-28T21:30:58.985Z,9.00
2023-03-28T21:33:29.361Z,9.00
2023-03-28T21:35:58.105Z,8.90
2023-03-28T21:38:26.697Z,8.90
2023-03-28T21:40:55.153Z,8.90
2023-03-28T21:43:23.697Z,8.90
2023-03-28T21:45:52.191Z,8.90
2023-03-28T21:48:21.219Z,8.90
2023-03-28T21:50:53.809Z,8.90
2023-03-28T21:53:22.408Z,9.00
2023-03-28T21:55:51.514Z,9.00
2023-03-28T21:58:19.984Z,9.00
2023-03-28T22:00:48.674Z,9.00
2023-03-28T22:03:17.301Z,9.00
2023-03-28T22:05:46.394Z,9.00
2023-03-28T22:08:16.305Z,8.90
2023-03-28T22:10:45.908Z,8.80
2023-03-28T22:13:14.949Z,8.80
2023-03-28T22:15:43.444Z,8.80
2023-03-28T22:18:12.088Z,8.80
2023-03-28T22:20:43.828Z,8.80
2023-03-28T22:23:12.438Z,8.80
2023-03-28T22:25:42.582Z,8.80
2023-03-28T22:28:11.655Z,8.90
2023-03-28T22:30:40.392Z,8.90
2023-03-28T22:33:11.126Z,8.80
2023-03-28T22:35:39.597Z,8.90
2023-03-28T22:38:08.188Z,8.90
2023-03-28T22:40:36.649Z,8.90
2023-03-28T22:43:06.488Z,8.80
2023-03-28T22:45:34.862Z,8.80
2023-03-28T22:48:03.422Z,8.70
2023-03-28T22:50:33.769Z,8.60
2023-03-28T22:53:02.395Z,8.60
2023-03-28T22:55:30.929Z,8.70
2023-03-28T22:57:59.330Z,8.60
2023-03-28T23:00:29.402Z,8.60
2023-03-28T23:02:58.286Z,8.60
2023-03-28T23:05:28.121Z,8.60
2023-03-28T23:07:57.824Z,8.50
2023-03-28T23:10:26.594Z,8.50
2023-03-28T23:12:55.350Z,8.40
2023-03-28T23:15:24.292Z,8.40
2023-03-28T23:17:54.451Z,8.50
2023-03-28T23:20:25.841Z,8.50
2023-03-28T23:22:55.038Z,8.50
2023-03-28T23:25:24.315Z,8.50
2023-03-28T23:27:53.175Z,8.50
2023-03-28T23:30:22.110Z,8.40
2023-03-28T23:32:50.898Z,8.40
2023-03-28T23:35:21.151Z,8.40
2023-03-28T23:37:53.019Z,8.40
2023-03-28T23:40:23.370Z,8.50
2023-03-28T23:42:52.125Z,8.50
2023-03-28T23:45:20.911Z,8.50
2023-03-28T23:47:49.688Z,8.50
2023-03-28T23:50:20.074Z,8.60
2023-03-28T23:52:48.805Z,8.60
2023-03-28T23:55:17.703Z,8.60
2023-03-28T23:57:46.482Z,8.70
